Airfield :







YOU CAN JOIN US ON...

 
LOGIN :

Register | Disclaimer

   EN    FR    IT 

 









Legend :    VFR   Marginal VFR   IFR   Intensive IFR   Very Intensive IFR
Visi :
Ceiling :
>= 8 km
>= 3000ft
5 to 8 km
1000 to 3000 ft
1500m to 5 km
500 to 1000 ft
800 to 1500m
200 to 500 ft
< 800m
< 200 ft
Symbols :   Thunderstorms  Fog  Heavy snow  Heavy precipitations  Wind > 20 kt






- Airport Elevation : 192 ft
- IATA code : BGR


KBGR - Bangor International

CURRENT METAR :
  • 232253Z 00000KT 10SM FEW100 OVC250 M03/M06 A3028 RMK AO2 SLP258 T10281061

EXPIRED METARs :
  • 232153Z 00000KT 10SM FEW100 OVC200 M02/M06 A3027 RMK AO2 SLP255 T10171061
  • 232053Z 00000KT 10SM SCT100 BKN200 00/M05 A3027 RMK AO2 SLP252 T00001050 56001
  • 231953Z 18004KT 10SM SCT100 BKN200 04/M06 A3027 RMK AO2 SLP253 T00441061

TAF KBGR
Valid from the 23 at 18:00 until the 24 at 18:00 UTC


231720Z 2318/2418 22004KT P6SM FEW100
FM232300 00000KT P6SM FEW100
FM240900 36003KT P6SM SCT090
FM241300 02005KT P6SM BKN090



MET'MAP, your aeronautical weather chart ! - Copyright ORBIFLY December 2007 - Disclaimer

ORBIFLY MET'MAP TEAM :

Programming & Development : Alexandra Zaïnal
Concept & original design : Baudouin d'Aumeries
Assistance for programming : Marc-Olivier Méhu
Technical & hardware support : Manuel Goepfert

Contact : metmap@orbifly.com




SOURCES & CREDITS :

   NOAA